Time;durP1;ratioP1;P1;durP2;ratioP2;P2;SDS_P1;SDS_P2;PMS_P1;PMS_P2;Temp;Humidity;BMP_temperature;BMP_pressure;BME280_temperature;BME280_humidity;BME280_pressure;Samples;Min_cycle;Max_cycle;Signal;HPM_P1;HPM_P2
2023/01/25 00:02:18;;;;;;;;;;;19.40;51.70;;;;;;6320771;28;19916;-69
2023/01/25 00:05:19;;;;;;;;;;;19.40;51.60;;;;;;6320672;28;19904;-69
2023/01/25 00:08:20;;;;;;;;;;;19.40;51.60;;;;;;6320236;28;20499;-69
2023/01/25 00:11:21;;;;;;;;;;;19.40;51.60;;;;;;6320616;28;20002;-69
2023/01/25 00:14:22;;;;;;;;;;;19.40;51.60;;;;;;6320832;28;19949;-69
2023/01/25 00:17:22;;;;;;;;;;;19.40;51.60;;;;;;6320504;28;19904;-69
2023/01/25 00:20:23;;;;;;;;;;;19.30;51.60;;;;;;6320069;28;20502;-69
2023/01/25 00:23:23;;;;;;;;;;;19.30;51.60;;;;;;6302800;28;19951;-69
2023/01/25 00:26:24;;;;;;;;;;;19.30;51.60;;;;;;6319947;28;19965;-68
2023/01/25 00:29:24;;;;;;;;;;;19.30;51.60;;;;;;6320407;28;19903;-69
2023/01/25 00:32:35;;;;;;;;;;;19.30;51.60;;;;;;6320014;28;19904;-69
2023/01/25 00:35:35;;;;;;;;;;;19.30;51.50;;;;;;6320084;28;19904;-69
2023/01/25 00:38:36;;;;;;;;;;;19.30;51.60;;;;;;6301791;28;19947;-69
2023/01/25 00:41:37;;;;;;;;;;;19.30;51.50;;;;;;6301688;28;19908;-69
2023/01/25 00:44:38;;;;;;;;;;;19.30;51.60;;;;;;6320326;28;19993;-69
2023/01/25 00:47:39;;;;;;;;;;;19.30;51.60;;;;;;6319626;28;20689;-69
2023/01/25 00:50:39;;;;;;;;;;;19.30;51.60;;;;;;6319801;28;19907;-69
2023/01/25 00:53:40;;;;;;;;;;;19.30;51.50;;;;;;6319663;28;19908;-69
2023/01/25 00:56:41;;;;;;;;;;;19.30;51.60;;;;;;6301279;28;19904;-69
2023/01/25 00:59:43;;;;;;;;;;;19.30;51.60;;;;;;6319615;28;19918;-69
2023/01/25 01:02:43;;;;;;;;;;;19.30;51.60;;;;;;6319630;28;19908;-69
2023/01/25 01:05:44;;;;;;;;;;;19.30;51.60;;;;;;6319551;28;19904;-69
2023/01/25 01:08:45;;;;;;;;;;;19.30;51.60;;;;;;6319113;28;19935;-69
2023/01/25 01:11:45;;;;;;;;;;;19.30;51.60;;;;;;6319062;28;20311;-69
2023/01/25 01:14:46;;;;;;;;;;;19.30;51.60;;;;;;6319540;28;19998;-69
2023/01/25 01:17:46;;;;;;;;;;;19.30;51.60;;;;;;6300838;28;20502;-69
2023/01/25 01:20:51;;;;;;;;;;;19.30;51.60;;;;;;6319303;28;20257;-69
2023/01/25 01:23:53;;;;;;;;;;;19.30;51.60;;;;;;6318879;28;20003;-69
2023/01/25 01:26:53;;;;;;;;;;;19.30;51.60;;;;;;6318780;28;19922;-69
2023/01/25 01:29:54;;;;;;;;;;;19.30;51.60;;;;;;6318662;28;20551;-69
2023/01/25 01:32:54;;;;;;;;;;;19.30;51.50;;;;;;6319088;28;19911;-69
2023/01/25 01:35:55;;;;;;;;;;;19.30;51.60;;;;;;6318713;28;19950;-69
2023/01/25 01:38:56;;;;;;;;;;;19.30;51.60;;;;;;6301276;28;19908;-69
2023/01/25 01:41:57;;;;;;;;;;;19.30;51.60;;;;;;6318528;28;19999;-69
2023/01/25 01:44:57;;;;;;;;;;;19.30;51.60;;;;;;6318862;28;19904;-69
2023/01/25 01:47:58;;;;;;;;;;;19.30;52.30;;;;;;6318731;28;20049;-69
2023/01/25 01:51:07;;;;;;;;;;;19.30;51.70;;;;;;6318679;28;19931;-69
2023/01/25 01:54:11;;;;;;;;;;;19.30;51.70;;;;;;6317869;28;20392;-69
2023/01/25 01:57:14;;;;;;;;;;;19.30;51.70;;;;;;6318666;28;19914;-68
2023/01/25 02:00:17;;;;;;;;;;;19.30;51.60;;;;;;6318338;28;19915;-69
2023/01/25 02:03:18;;;;;;;;;;;19.30;51.60;;;;;;6300248;28;20362;-69
2023/01/25 02:06:24;;;;;;;;;;;19.30;51.70;;;;;;6300198;28;20552;-69
2023/01/25 02:09:25;;;;;;;;;;;19.30;51.60;;;;;;6318331;28;20588;-68
2023/01/25 02:12:26;;;;;;;;;;;19.30;51.70;;;;;;6317827;28;19908;-69
2023/01/25 02:15:28;;;;;;;;;;;19.30;51.70;;;;;;6317831;28;19930;-69
2023/01/25 02:18:29;;;;;;;;;;;19.30;51.60;;;;;;6318188;28;19970;-69
2023/01/25 02:21:35;;;;;;;;;;;19.30;51.70;;;;;;6301112;28;19908;-69
2023/01/25 02:24:37;;;;;;;;;;;19.30;51.70;;;;;;6337379;28;19908;-69
2023/01/25 02:27:41;;;;;;;;;;;19.30;51.70;;;;;;6348060;28;20368;-69
2023/01/25 02:30:42;;;;;;;;;;;19.30;51.70;;;;;;6348337;28;19903;-69
2023/01/25 02:33:42;;;;;;;;;;;19.30;51.70;;;;;;6329854;28;19943;-69
2023/01/25 02:36:43;;;;;;;;;;;19.30;51.70;;;;;;6348111;28;20115;-69
2023/01/25 02:39:44;;;;;;;;;;;19.30;51.70;;;;;;6348101;28;20337;-69
2023/01/25 02:42:45;;;;;;;;;;;19.30;51.70;;;;;;6329784;28;19903;-69
2023/01/25 02:45:48;;;;;;;;;;;19.30;51.70;;;;;;6322564;28;20324;-69
2023/01/25 02:48:49;;;;;;;;;;;19.30;51.70;;;;;;6322690;28;20625;-69
2023/01/25 02:51:51;;;;;;;;;;;19.30;51.70;;;;;;6322524;28;19904;-69
2023/01/25 02:54:51;;;;;;;;;;;19.30;51.70;;;;;;6322320;28;19957;-69
2023/01/25 02:57:52;;;;;;;;;;;19.30;51.70;;;;;;6322061;28;19904;-69
2023/01/25 03:00:53;;;;;;;;;;;19.30;51.70;;;;;;6321753;28;19915;-69
2023/01/25 03:03:54;;;;;;;;;;;19.30;51.70;;;;;;6322066;28;19908;-69
2023/01/25 03:06:54;;;;;;;;;;;19.30;51.70;;;;;;6322160;28;19953;-69
2023/01/25 03:09:55;;;;;;;;;;;19.30;51.70;;;;;;6322014;28;19904;-69
2023/01/25 03:12:55;;;;;;;;;;;19.30;51.70;;;;;;6295453;28;19908;-69
2023/01/25 03:16:01;;;;;;;;;;;19.30;51.60;;;;;;6278798;28;19915;-69
2023/01/25 03:19:01;;;;;;;;;;;19.30;51.70;;;;;;6296874;28;20288;-69
2023/01/25 03:22:02;;;;;;;;;;;19.30;51.70;;;;;;6278525;28;19916;-68
2023/01/25 03:25:03;;;;;;;;;;;19.30;51.70;;;;;;6308032;28;19903;-69
2023/01/25 03:28:03;;;;;;;;;;;19.30;51.70;;;;;;6328432;28;20006;-69
2023/01/25 03:31:04;;;;;;;;;;;19.30;51.70;;;;;;6325572;28;19987;-69
2023/01/25 03:34:05;;;;;;;;;;;19.30;51.70;;;;;;6321505;28;19904;-69
2023/01/25 03:37:05;;;;;;;;;;;19.30;51.70;;;;;;6321247;28;19904;-68
2023/01/25 03:40:06;;;;;;;;;;;19.30;51.70;;;;;;6303798;28;19908;-69
2023/01/25 03:43:07;;;;;;;;;;;19.30;51.70;;;;;;6321286;28;19904;-69
2023/01/25 03:46:08;;;;;;;;;;;19.30;51.70;;;;;;6321369;28;20349;-69
2023/01/25 03:49:09;;;;;;;;;;;19.30;51.70;;;;;;6321186;28;19950;-69
2023/01/25 03:52:09;;;;;;;;;;;19.30;51.70;;;;;;6321196;28;19904;-68
2023/01/25 03:55:10;;;;;;;;;;;19.30;51.70;;;;;;6303042;28;19904;-68
2023/01/25 03:58:10;;;;;;;;;;;19.30;51.70;;;;;;6320941;28;19900;-69
2023/01/25 04:01:11;;;;;;;;;;;19.30;51.60;;;;;;6302727;28;19908;-69
2023/01/25 04:04:11;;;;;;;;;;;19.30;51.60;;;;;;6302750;28;19908;-69
2023/01/25 04:07:12;;;;;;;;;;;19.30;51.70;;;;;;6320587;28;19908;-69
2023/01/25 04:10:12;;;;;;;;;;;19.30;51.70;;;;;;6320535;28;19912;-69
2023/01/25 04:13:13;;;;;;;;;;;19.30;51.70;;;;;;6320432;28;19911;-69
2023/01/25 04:16:13;;;;;;;;;;;19.30;51.70;;;;;;6320449;28;19915;-68
2023/01/25 04:19:14;;;;;;;;;;;19.30;51.70;;;;;;6320353;28;19912;-69
2023/01/25 04:22:15;;;;;;;;;;;19.30;51.70;;;;;;6333764;28;19935;-68
2023/01/25 04:25:16;;;;;;;;;;;19.30;52.40;;;;;;6322000;28;19904;-69
2023/01/25 04:28:16;;;;;;;;;;;19.30;51.80;;;;;;6301595;28;19970;-69
2023/01/25 04:31:17;;;;;;;;;;;19.20;51.70;;;;;;6320068;28;19923;-69
2023/01/25 04:34:17;;;;;;;;;;;19.20;51.60;;;;;;6302221;28;19908;-68
2023/01/25 04:37:18;;;;;;;;;;;19.30;51.70;;;;;;6301467;28;19915;-69
2023/01/25 04:40:18;;;;;;;;;;;19.30;51.60;;;;;;6320202;28;19957;-69
2023/01/25 04:43:19;;;;;;;;;;;19.30;51.70;;;;;;6320312;28;19957;-69
2023/01/25 04:46:20;;;;;;;;;;;19.30;51.70;;;;;;6319370;28;19911;-69
2023/01/25 04:49:20;;;;;;;;;;;19.30;51.70;;;;;;6301314;28;20411;-68
2023/01/25 04:52:21;;;;;;;;;;;19.30;51.70;;;;;;6320069;28;19904;-70
2023/01/25 04:55:22;;;;;;;;;;;19.30;51.70;;;;;;6320119;28;19915;-70
2023/01/25 04:58:22;;;;;;;;;;;19.30;51.70;;;;;;6320168;28;19990;-70
2023/01/25 05:01:23;;;;;;;;;;;19.30;51.70;;;;;;6320358;28;20014;-70
2023/01/25 05:04:23;;;;;;;;;;;19.30;51.70;;;;;;6320174;28;19908;-70
2023/01/25 05:07:24;;;;;;;;;;;19.30;51.80;;;;;;6319955;28;19908;-70
2023/01/25 05:10:24;;;;;;;;;;;19.30;51.80;;;;;;6319740;28;19904;-69
2023/01/25 05:13:25;;;;;;;;;;;19.20;51.60;;;;;;6319193;28;19911;-70
2023/01/25 05:16:25;;;;;;;;;;;19.30;51.70;;;;;;6319344;28;19907;-70
2023/01/25 05:19:26;;;;;;;;;;;19.30;51.70;;;;;;6301045;28;19904;-70
2023/01/25 05:22:26;;;;;;;;;;;19.20;52.20;;;;;;6301842;28;19915;-70
2023/01/25 05:28:46;;;;;;;;;;;19.30;51.80;;;;;;6319331;28;19962;-70
2023/01/25 05:31:47;;;;;;;;;;;19.20;51.70;;;;;;6319766;28;19910;-69
2023/01/25 05:34:47;;;;;;;;;;;19.30;51.70;;;;;;6319694;28;19920;-69
2023/01/25 05:37:48;;;;;;;;;;;19.20;51.70;;;;;;6319666;28;19991;-70
2023/01/25 05:40:48;;;;;;;;;;;19.20;51.70;;;;;;6319283;28;20002;-70
2023/01/25 05:43:49;;;;;;;;;;;19.30;51.80;;;;;;6301120;28;19908;-70
2023/01/25 05:46:50;;;;;;;;;;;19.30;51.70;;;;;;6318870;28;19947;-70
2023/01/25 05:49:50;;;;;;;;;;;19.30;51.80;;;;;;6319192;28;19975;-70
2023/01/25 05:52:51;;;;;;;;;;;19.30;51.80;;;;;;6300989;28;19904;-69
2023/01/25 05:55:52;;;;;;;;;;;19.30;51.70;;;;;;6319332;28;19904;-70
2023/01/25 05:58:53;;;;;;;;;;;19.20;51.70;;;;;;6324046;28;20413;-70
2023/01/25 06:01:53;;;;;;;;;;;19.30;52.60;;;;;;6324213;28;20116;-70
2023/01/25 06:04:54;;;;;;;;;;;19.30;51.80;;;;;;6323924;28;19908;-69
2023/01/25 06:07:56;;;;;;;;;;;19.30;51.80;;;;;;6324309;28;19966;-70
2023/01/25 06:10:57;;;;;;;;;;;19.30;51.80;;;;;;6324167;28;19904;-70
2023/01/25 06:13:57;;;;;;;;;;;19.30;51.80;;;;;;6324415;28;19904;-70
2023/01/25 06:16:58;;;;;;;;;;;19.30;51.70;;;;;;6305748;28;19987;-70
2023/01/25 06:19:59;;;;;;;;;;;19.20;51.70;;;;;;6324163;28;20289;-70
2023/01/25 06:22:59;;;;;;;;;;;19.30;51.70;;;;;;6323984;28;19930;-70
2023/01/25 06:26:01;;;;;;;;;;;19.30;51.70;;;;;;6323967;28;19904;-69
2023/01/25 06:29:03;;;;;;;;;;;19.30;51.60;;;;;;6305281;28;19916;-69
2023/01/25 06:32:04;;;;;;;;;;;19.20;51.60;;;;;;6323783;28;19935;-70
2023/01/25 06:35:05;;;;;;;;;;;19.30;51.70;;;;;;6305582;28;20387;-69
2023/01/25 06:38:06;;;;;;;;;;;19.20;51.60;;;;;;6323595;28;19908;-69
2023/01/25 06:41:08;;;;;;;;;;;19.20;51.70;;;;;;6304851;28;19950;-70
2023/01/25 06:44:09;;;;;;;;;;;19.30;51.70;;;;;;6305378;28;19933;-70
2023/01/25 06:47:10;;;;;;;;;;;19.30;51.70;;;;;;6323447;28;19963;-70
2023/01/25 06:50:10;;;;;;;;;;;19.30;51.70;;;;;;6304899;28;19912;-69
2023/01/25 06:53:12;;;;;;;;;;;19.30;51.70;;;;;;6323768;28;19957;-70
2023/01/25 06:56:20;;;;;;;;;;;19.30;51.80;;;;;;6312066;28;19925;-70
2023/01/25 06:59:20;;;;;;;;;;;19.30;51.80;;;;;;6310815;28;19908;-70
2023/01/25 07:02:21;;;;;;;;;;;19.20;51.60;;;;;;6326917;28;19986;-70
2023/01/25 07:05:22;;;;;;;;;;;19.30;51.70;;;;;;6348558;28;19907;-70
2023/01/25 07:08:23;;;;;;;;;;;19.30;51.70;;;;;;6329788;28;19994;-70
2023/01/25 07:11:24;;;;;;;;;;;19.30;51.70;;;;;;6311003;28;19931;-70
2023/01/25 07:14:24;;;;;;;;;;;19.30;51.70;;;;;;6312623;28;19947;-71
2023/01/25 07:17:25;;;;;;;;;;;19.30;51.70;;;;;;6316165;28;20310;-71
2023/01/25 07:20:26;;;;;;;;;;;19.40;51.60;;;;;;6328723;28;19961;-70
2023/01/25 07:23:27;;;;;;;;;;;19.40;51.40;;;;;;6318394;28;19904;-70
2023/01/25 07:26:27;;;;;;;;;;;19.40;51.40;;;;;;6323153;28;19958;-71
2023/01/25 07:29:29;;;;;;;;;;;19.40;51.40;;;;;;6326165;28;19904;-70
2023/01/25 07:32:29;;;;;;;;;;;19.40;51.40;;;;;;6321882;28;19942;-71
2023/01/25 07:35:31;;;;;;;;;;;19.40;51.50;;;;;;6339138;28;19915;-70
2023/01/25 07:38:32;;;;;;;;;;;19.40;51.40;;;;;;6330022;28;19915;-70
2023/01/25 07:41:32;;;;;;;;;;;19.40;51.50;;;;;;6319808;28;19908;-70
2023/01/25 07:44:33;;;;;;;;;;;19.40;51.50;;;;;;6321589;28;19932;-71
2023/01/25 07:47:34;;;;;;;;;;;19.40;51.50;;;;;;6333844;28;19912;-71
2023/01/25 07:50:35;;;;;;;;;;;19.40;51.60;;;;;;6296102;28;20572;-73
2023/01/25 07:53:37;;;;;;;;;;;19.40;51.40;;;;;;6297735;28;19951;-71
2023/01/25 07:56:39;;;;;;;;;;;19.40;51.50;;;;;;6332026;28;19904;-71
2023/01/25 07:59:40;;;;;;;;;;;19.40;51.60;;;;;;6329070;28;19933;-71
2023/01/25 08:02:40;;;;;;;;;;;19.50;51.60;;;;;;6342955;28;19904;-73
2023/01/25 08:05:44;;;;;;;;;;;19.50;51.50;;;;;;6326776;28;19904;-71
2023/01/25 08:08:46;;;;;;;;;;;19.50;51.50;;;;;;6304391;28;19908;-69
2023/01/25 08:11:48;;;;;;;;;;;19.50;51.30;;;;;;6330238;28;19904;-71
2023/01/25 08:14:49;;;;;;;;;;;19.50;51.40;;;;;;6308990;28;20006;-71
2023/01/25 08:17:50;;;;;;;;;;;19.50;51.00;;;;;;6334539;28;19946;-70
2023/01/25 08:20:50;;;;;;;;;;;19.50;51.10;;;;;;6334464;28;19907;-71
2023/01/25 08:23:51;;;;;;;;;;;19.50;51.30;;;;;;6323885;28;19904;-71
2023/01/25 08:26:52;;;;;;;;;;;19.50;51.40;;;;;;6294497;28;19916;-71
2023/01/25 08:29:53;;;;;;;;;;;19.50;51.40;;;;;;6289835;28;19904;-71
2023/01/25 08:32:54;;;;;;;;;;;19.50;51.40;;;;;;6295618;28;19908;-72
2023/01/25 08:35:56;;;;;;;;;;;19.50;51.40;;;;;;6307587;28;20384;-71
2023/01/25 08:38:57;;;;;;;;;;;19.50;51.50;;;;;;6326734;28;19911;-71
2023/01/25 08:41:58;;;;;;;;;;;19.40;51.40;;;;;;6324841;28;19908;-71
2023/01/25 08:44:59;;;;;;;;;;;19.50;51.40;;;;;;6334731;27;19915;-71
2023/01/25 08:47:59;;;;;;;;;;;19.50;51.40;;;;;;6331458;28;19904;-71
2023/01/25 08:51:01;;;;;;;;;;;19.50;51.40;;;;;;6327488;28;19990;-70
2023/01/25 08:54:05;;;;;;;;;;;19.50;51.40;;;;;;6346956;27;20414;-71
2023/01/25 08:57:06;;;;;;;;;;;19.50;51.40;;;;;;6355428;27;19981;-71
2023/01/25 09:00:07;;;;;;;;;;;19.50;51.50;;;;;;6327642;28;20002;-71
2023/01/25 09:03:09;;;;;;;;;;;19.50;51.40;;;;;;6366879;27;19914;-70
2023/01/25 09:06:10;;;;;;;;;;;19.50;51.50;;;;;;6353874;27;19910;-71
2023/01/25 09:09:12;;;;;;;;;;;19.50;51.40;;;;;;6319597;28;19904;-70
2023/01/25 09:12:13;;;;;;;;;;;19.50;51.40;;;;;;6327928;28;19911;-71
2023/01/25 09:15:13;;;;;;;;;;;19.50;51.50;;;;;;6353926;27;19903;-70
2023/01/25 09:18:15;;;;;;;;;;;19.50;51.50;;;;;;6348954;27;19922;-71
2023/01/25 09:21:16;;;;;;;;;;;19.50;51.50;;;;;;6327751;28;19912;-70
2023/01/25 09:24:17;;;;;;;;;;;19.50;51.50;;;;;;6345509;28;19911;-71
2023/01/25 09:27:17;;;;;;;;;;;19.50;51.50;;;;;;6326468;28;20481;-71
2023/01/25 09:30:18;;;;;;;;;;;19.50;51.50;;;;;;6345346;28;19945;-71
2023/01/25 09:33:18;;;;;;;;;;;19.50;51.50;;;;;;6327577;28;19904;-71
2023/01/25 09:36:20;;;;;;;;;;;19.50;51.50;;;;;;6345069;28;19939;-71
2023/01/25 09:39:20;;;;;;;;;;;19.50;51.60;;;;;;6328463;28;19904;-67
2023/01/25 09:42:33;;;;;;;;;;;19.50;51.70;;;;;;6305428;28;19907;-67
2023/01/25 09:45:35;;;;;;;;;;;19.40;50.70;;;;;;6320919;28;19935;-69
2023/01/25 09:48:41;;;;;;;;;;;19.40;49.60;;;;;;6342041;28;20376;-70
2023/01/25 09:51:51;;;;;;;;;;;19.40;50.00;;;;;;6346187;28;20335;-66
2023/01/25 09:54:51;;;;;;;;;;;19.30;49.70;;;;;;6342929;28;19946;-68
2023/01/25 09:57:55;;;;;;;;;;;19.30;48.80;;;;;;6320570;28;19904;-68
2023/01/25 10:01:14;;;;;;;;;;;19.30;48.60;;;;;;6321018;28;20022;-69
2023/01/25 10:04:25;;;;;;;;;;;19.30;47.90;;;;;;6320955;28;19961;-68
2023/01/25 10:07:45;;;;;;;;;;;19.20;47.60;;;;;;6329390;28;20265;-69
2023/01/25 10:10:49;;;;;;;;;;;19.30;46.90;;;;;;6346273;28;20368;-69
2023/01/25 10:13:51;;;;;;;;;;;19.20;46.10;;;;;;6332292;28;19953;-70
2023/01/25 10:17:01;;;;;;;;;;;19.20;45.80;;;;;;6319983;28;19908;-70
2023/01/25 10:20:23;;;;;;;;;;;19.20;46.80;;;;;;6320212;28;19908;-70
2023/01/25 10:23:29;;;;;;;;;;;19.20;46.80;;;;;;6324621;28;19990;-70
2023/01/25 10:26:34;;;;;;;;;;;19.20;45.30;;;;;;6306860;28;19998;-70
2023/01/25 10:29:36;;;;;;;;;;;19.20;45.20;;;;;;6320350;28;19942;-70
2023/01/25 10:32:37;;;;;;;;;;;19.30;45.50;;;;;;6302043;28;19926;-70
2023/01/25 10:35:42;;;;;;;;;;;19.30;45.70;;;;;;6319970;28;19904;-70
2023/01/25 10:38:45;;;;;;;;;;;19.30;45.80;;;;;;6319814;28;19911;-69
2023/01/25 10:41:47;;;;;;;;;;;19.30;46.00;;;;;;6320189;28;19907;-69
2023/01/25 10:44:47;;;;;;;;;;;19.30;46.20;;;;;;6306556;28;19952;-70
2023/01/25 10:48:02;;;;;;;;;;;19.30;46.40;;;;;;6324337;28;19912;-70
2023/01/25 10:51:02;;;;;;;;;;;19.30;46.60;;;;;;6306259;28;19953;-70
2023/01/25 10:54:04;;;;;;;;;;;19.30;46.80;;;;;;6323905;28;20261;-70
2023/01/25 10:57:05;;;;;;;;;;;19.30;47.00;;;;;;6323952;28;20395;-70
2023/01/25 11:00:09;;;;;;;;;;;19.30;47.20;;;;;;6323827;28;19908;-70
2023/01/25 11:03:20;;;;;;;;;;;19.30;47.30;;;;;;6322887;28;19950;-70
2023/01/25 11:06:51;;;;;;;;;;;19.30;47.60;;;;;;6323704;28;19950;-70
2023/01/25 11:09:52;;;;;;;;;;;19.30;47.70;;;;;;6289041;28;19904;-70
2023/01/25 11:13:20;;;;;;;;;;;19.30;47.80;;;;;;6323910;28;19946;-70
2023/01/25 11:16:26;;;;;;;;;;;19.30;47.90;;;;;;6305547;28;20415;-69
2023/01/25 11:19:35;;;;;;;;;;;19.30;48.00;;;;;;6323645;28;19947;-70
2023/01/25 11:22:35;;;;;;;;;;;19.30;48.20;;;;;;6322249;28;19930;-70
2023/01/25 11:25:36;;;;;;;;;;;19.30;48.20;;;;;;6323103;28;19904;-70
2023/01/25 11:28:36;;;;;;;;;;;19.30;48.20;;;;;;6304848;28;19923;-70
2023/01/25 11:31:40;;;;;;;;;;;19.30;48.30;;;;;;6323223;28;19903;-70
2023/01/25 11:34:41;;;;;;;;;;;19.30;48.40;;;;;;6323237;28;19904;-70
2023/01/25 11:37:41;;;;;;;;;;;19.30;48.40;;;;;;6322784;28;19904;-69
2023/01/25 11:40:52;;;;;;;;;;;19.30;48.50;;;;;;6322625;28;20288;-70
2023/01/25 11:44:00;;;;;;;;;;;19.30;48.60;;;;;;6323119;28;19908;-70
2023/01/25 11:47:22;;;;;;;;;;;19.30;48.60;;;;;;6322549;28;19904;-70
2023/01/25 11:50:26;;;;;;;;;;;19.30;48.70;;;;;;6322771;28;19904;-70
2023/01/25 11:53:42;;;;;;;;;;;19.30;48.70;;;;;;6322804;28;19995;-70
2023/01/25 11:56:54;;;;;;;;;;;19.30;48.70;;;;;;6322457;28;19904;-70
2023/01/25 12:00:13;;;;;;;;;;;19.30;48.80;;;;;;6304237;28;20285;-70
2023/01/25 12:03:14;;;;;;;;;;;19.30;48.80;;;;;;6322856;28;20007;-70
2023/01/25 12:06:21;;;;;;;;;;;19.30;48.90;;;;;;6323189;28;20361;-70
2023/01/25 12:09:30;;;;;;;;;;;19.30;48.90;;;;;;6322288;28;19933;-70
2023/01/25 12:12:43;;;;;;;;;;;19.30;48.90;;;;;;6322394;28;19919;-70
2023/01/25 12:15:47;;;;;;;;;;;19.30;49.00;;;;;;6322055;28;19908;-70
2023/01/25 12:18:54;;;;;;;;;;;19.30;49.00;;;;;;6321901;28;19910;-70
2023/01/25 12:21:54;;;;;;;;;;;19.30;49.00;;;;;;6328309;28;19933;-70
2023/01/25 12:25:04;;;;;;;;;;;19.30;49.00;;;;;;6347596;28;19904;-70
2023/01/25 12:28:08;;;;;;;;;;;19.30;49.10;;;;;;6313280;28;19919;-70
2023/01/25 12:31:21;;;;;;;;;;;19.30;49.20;;;;;;6321713;28;19990;-70
2023/01/25 12:34:24;;;;;;;;;;;19.30;49.10;;;;;;6322167;28;20373;-70
2023/01/25 12:37:29;;;;;;;;;;;19.30;49.10;;;;;;6321406;28;20455;-70
2023/01/25 12:40:42;;;;;;;;;;;19.30;49.20;;;;;;6321817;28;19910;-70
2023/01/25 12:43:46;;;;;;;;;;;19.30;49.20;;;;;;6321651;28;19951;-70
2023/01/25 12:46:51;;;;;;;;;;;19.30;49.20;;;;;;6321369;28;20387;-70
2023/01/25 12:49:58;;;;;;;;;;;19.30;49.20;;;;;;6321199;28;19930;-70
2023/01/25 12:53:19;;;;;;;;;;;19.30;49.30;;;;;;6321052;28;19904;-70
2023/01/25 12:56:25;;;;;;;;;;;19.30;49.20;;;;;;6307030;28;19904;-70
2023/01/25 12:59:32;;;;;;;;;;;19.30;49.30;;;;;;6320787;28;20276;-70
2023/01/25 13:02:35;;;;;;;;;;;19.30;49.30;;;;;;6303192;28;19912;-70
2023/01/25 13:05:54;;;;;;;;;;;19.30;49.30;;;;;;6320793;28;19935;-69
2023/01/25 13:08:55;;;;;;;;;;;19.30;49.30;;;;;;6321491;28;19919;-69
2023/01/25 13:11:55;;;;;;;;;;;19.30;49.30;;;;;;6294238;28;19936;-67
2023/01/25 13:14:56;;;;;;;;;;;19.30;49.30;;;;;;6296019;28;20007;-70
2023/01/25 13:17:57;;;;;;;;;;;19.30;49.40;;;;;;6314734;28;19935;-71
2023/01/25 13:21:07;;;;;;;;;;;19.30;49.40;;;;;;6306479;28;19908;-69
2023/01/25 13:24:23;;;;;;;;;;;19.30;49.30;;;;;;6346054;28;19929;-70
2023/01/25 13:27:27;;;;;;;;;;;19.30;49.30;;;;;;6341498;28;19920;-69
2023/01/25 13:30:30;;;;;;;;;;;19.30;49.40;;;;;;6297862;28;19908;-70
2023/01/25 13:33:32;;;;;;;;;;;19.30;49.40;;;;;;6293936;28;19905;-70
2023/01/25 13:36:38;;;;;;;;;;;19.30;49.50;;;;;;6319476;28;19904;-69
2023/01/25 13:39:40;;;;;;;;;;;19.30;49.50;;;;;;6300579;28;19914;-72
2023/01/25 13:42:56;;;;;;;;;;;19.30;49.60;;;;;;6300798;28;20365;-73
2023/01/25 13:45:57;;;;;;;;;;;19.30;49.60;;;;;;6311347;28;19908;-70
2023/01/25 13:49:02;;;;;;;;;;;19.30;49.60;;;;;;6301654;28;19904;-72
2023/01/25 13:52:03;;;;;;;;;;;19.30;49.60;;;;;;6328334;28;19969;-70
2023/01/25 13:55:15;;;;;;;;;;;19.30;49.70;;;;;;6344843;28;20311;-70
2023/01/25 13:58:20;;;;;;;;;;;19.30;49.70;;;;;;6336010;28;19904;-72
2023/01/25 14:01:22;;;;;;;;;;;19.30;49.60;;;;;;6301786;28;20265;-72
2023/01/25 14:04:23;;;;;;;;;;;19.30;49.70;;;;;;6305072;28;19951;-72
2023/01/25 14:07:28;;;;;;;;;;;19.30;49.70;;;;;;6296844;28;19905;-73
2023/01/25 14:10:29;;;;;;;;;;;19.30;49.70;;;;;;6289824;28;19904;-74
2023/01/25 14:13:29;;;;;;;;;;;19.30;49.80;;;;;;6339801;28;19973;-72
2023/01/25 14:16:30;;;;;;;;;;;19.30;49.90;;;;;;6310883;28;19911;-73
2023/01/25 14:19:32;;;;;;;;;;;19.30;49.80;;;;;;6333861;28;19904;-72
2023/01/25 14:22:32;;;;;;;;;;;19.30;49.80;;;;;;6334743;28;19998;-72
2023/01/25 14:25:33;;;;;;;;;;;19.30;49.90;;;;;;6302311;28;19910;-72
2023/01/25 14:28:34;;;;;;;;;;;19.30;50.00;;;;;;6293662;28;20482;-72
2023/01/25 14:31:35;;;;;;;;;;;19.30;50.00;;;;;;6309277;28;20603;-72
2023/01/25 14:34:36;;;;;;;;;;;19.30;50.70;;;;;;6330279;28;19907;-71
2023/01/25 14:37:40;;;;;;;;;;;19.30;50.10;;;;;;6335844;28;19923;-72
2023/01/25 14:40:42;;;;;;;;;;;19.30;50.80;;;;;;6327143;28;19919;-72
2023/01/25 14:43:44;;;;;;;;;;;19.30;50.10;;;;;;6340283;28;19942;-72
2023/01/25 14:46:45;;;;;;;;;;;19.30;50.20;;;;;;6335514;28;19946;-73
2023/01/25 14:49:45;;;;;;;;;;;19.30;50.20;;;;;;6313520;28;19904;-73
2023/01/25 14:52:46;;;;;;;;;;;19.30;50.20;;;;;;6327340;28;19904;-71
2023/01/25 14:55:47;;;;;;;;;;;19.30;50.10;;;;;;6308454;28;19908;-72
2023/01/25 14:58:48;;;;;;;;;;;19.30;50.20;;;;;;6325881;28;19904;-72
2023/01/25 15:01:49;;;;;;;;;;;19.30;50.20;;;;;;6325563;28;19927;-70
2023/01/25 15:04:51;;;;;;;;;;;19.30;50.10;;;;;;6343576;28;19910;-72
2023/01/25 15:07:56;;;;;;;;;;;19.30;50.20;;;;;;6351498;28;19934;-72
2023/01/25 15:11:33;;;;;;;;;;;19.30;50.30;;;;;;6323959;28;19904;-72
2023/01/25 15:14:20;;;;;;;;;;;19.30;50.30;;;;;;6338589;28;19907;-72
2023/01/25 15:17:37;;;;;;;;;;;19.30;50.30;;;;;;6351517;28;19958;-72
2023/01/25 15:20:39;;;;;;;;;;;19.30;50.30;;;;;;6324145;28;19965;-72
2023/01/25 15:23:41;;;;;;;;;;;19.30;50.30;;;;;;6331786;28;19929;-73
2023/01/25 15:26:41;;;;;;;;;;;19.30;50.30;;;;;;6317423;28;20349;-72
2023/01/25 15:29:42;;;;;;;;;;;19.30;50.40;;;;;;6307418;28;20002;-71
2023/01/25 15:32:43;;;;;;;;;;;19.30;50.40;;;;;;6326821;28;19912;-72
2023/01/25 15:35:44;;;;;;;;;;;19.30;50.40;;;;;;6346785;28;20005;-73
2023/01/25 15:38:45;;;;;;;;;;;19.30;50.40;;;;;;6351079;28;19908;-74
2023/01/25 15:41:45;;;;;;;;;;;19.30;50.40;;;;;;6349811;28;20279;-72
2023/01/25 15:44:46;;;;;;;;;;;19.30;51.10;;;;;;6332847;28;19918;-73
2023/01/25 15:47:47;;;;;;;;;;;19.30;50.50;;;;;;6335344;28;19904;-72
2023/01/25 15:50:48;;;;;;;;;;;19.30;50.50;;;;;;6342441;28;19904;-72
2023/01/25 15:53:49;;;;;;;;;;;19.30;50.50;;;;;;6351892;28;19904;-72
2023/01/25 15:56:51;;;;;;;;;;;19.30;50.50;;;;;;6350111;28;20378;-73
2023/01/25 15:59:54;;;;;;;;;;;19.30;50.50;;;;;;6339877;28;19904;-72
2023/01/25 16:02:55;;;;;;;;;;;19.30;50.50;;;;;;6325241;28;19916;-72
2023/01/25 16:05:57;;;;;;;;;;;19.30;50.50;;;;;;6341567;28;19980;-73
2023/01/25 16:08:58;;;;;;;;;;;19.30;50.60;;;;;;6325494;28;19990;-72
2023/01/25 16:11:59;;;;;;;;;;;19.30;50.70;;;;;;6310179;28;19930;-73
2023/01/25 16:15:00;;;;;;;;;;;19.30;50.60;;;;;;6314464;28;19908;-73
2023/01/25 16:18:00;;;;;;;;;;;19.30;50.70;;;;;;6335520;28;19957;-73
2023/01/25 16:21:01;;;;;;;;;;;19.30;50.60;;;;;;6338073;28;19911;-73
2023/01/25 16:24:01;;;;;;;;;;;19.30;50.60;;;;;;6327486;28;19915;-73
2023/01/25 16:27:02;;;;;;;;;;;19.40;50.70;;;;;;6304557;28;19927;-73
2023/01/25 16:30:03;;;;;;;;;;;19.30;50.60;;;;;;6326822;28;20668;-71
2023/01/25 16:33:04;;;;;;;;;;;19.30;50.70;;;;;;6349867;28;19911;-73
2023/01/25 16:36:10;;;;;;;;;;;19.30;50.70;;;;;;6348883;28;19980;-73
2023/01/25 16:39:15;;;;;;;;;;;19.30;50.70;;;;;;6349184;28;19941;-72
2023/01/25 16:42:15;;;;;;;;;;;19.30;50.70;;;;;;6346783;28;20283;-72
2023/01/25 16:45:18;;;;;;;;;;;19.30;50.70;;;;;;6348123;28;19915;-72
2023/01/25 16:48:20;;;;;;;;;;;19.30;50.70;;;;;;6347655;28;19956;-71
2023/01/25 16:51:22;;;;;;;;;;;19.30;50.70;;;;;;6334738;28;19930;-72
2023/01/25 16:54:23;;;;;;;;;;;19.30;50.80;;;;;;6304072;28;19958;-73
2023/01/25 16:57:24;;;;;;;;;;;19.30;50.80;;;;;;6324414;28;19904;-73
2023/01/25 17:00:25;;;;;;;;;;;19.30;50.80;;;;;;6341147;28;19912;-72
2023/01/25 17:03:26;;;;;;;;;;;19.30;50.80;;;;;;6327134;28;19908;-71
2023/01/25 17:06:29;;;;;;;;;;;19.30;50.80;;;;;;6320879;28;19904;-70
2023/01/25 17:09:29;;;;;;;;;;;19.40;50.90;;;;;;6297870;28;20328;-70
2023/01/25 17:12:30;;;;;;;;;;;19.40;50.90;;;;;;6333128;28;19904;-69
2023/01/25 17:15:32;;;;;;;;;;;19.40;50.90;;;;;;6343654;28;19904;-70
2023/01/25 17:18:32;;;;;;;;;;;19.30;51.50;;;;;;6319097;28;19943;-70
2023/01/25 17:21:34;;;;;;;;;;;19.40;50.90;;;;;;6290994;28;20365;-70
2023/01/25 17:24:35;;;;;;;;;;;19.30;50.90;;;;;;6310360;28;20377;-70
2023/01/25 17:27:35;;;;;;;;;;;19.40;51.00;;;;;;6339622;28;19998;-72
2023/01/25 17:30:38;;;;;;;;;;;19.30;50.90;;;;;;6336509;28;20641;-70
2023/01/25 17:33:39;;;;;;;;;;;19.30;50.90;;;;;;6317680;28;19911;-70
2023/01/25 17:36:39;;;;;;;;;;;19.30;51.00;;;;;;6325757;28;19912;-70
2023/01/25 17:39:40;;;;;;;;;;;19.30;50.90;;;;;;6342851;28;19918;-70
2023/01/25 17:42:40;;;;;;;;;;;19.30;51.00;;;;;;6342153;28;19911;-69
2023/01/25 17:45:41;;;;;;;;;;;19.30;51.00;;;;;;6317925;28;20410;-70